sensor_id;sensor_type;location;lat;lon;timestamp;temperature;humidity
21625;DHT22;10974;51.034;3.744;2022-10-22T04:00:06;15.60;99.90
21625;DHT22;10974;51.034;3.744;2022-10-22T04:02:32;15.60;99.90
21625;DHT22;10974;51.034;3.744;2022-10-22T04:04:57;15.60;99.90
21625;DHT22;10974;51.034;3.744;2022-10-22T04:07:23;15.60;99.90
21625;DHT22;10974;51.034;3.744;2022-10-22T04:09:48;15.60;99.90
21625;DHT22;10974;51.034;3.744;2022-10-22T04:12:14;15.50;99.90
21625;DHT22;10974;51.034;3.744;2022-10-22T04:14:40;15.50;99.90
21625;DHT22;10974;51.034;3.744;2022-10-22T04:17:05;15.50;99.90
21625;DHT22;10974;51.034;3.744;2022-10-22T04:19:31;15.40;99.90
21625;DHT22;10974;51.034;3.744;2022-10-22T04:21:57;15.40;99.90
21625;DHT22;10974;51.034;3.744;2022-10-22T04:24:24;15.30;99.90
21625;DHT22;10974;51.034;3.744;2022-10-22T04:26:52;15.30;99.90
21625;DHT22;10974;51.034;3.744;2022-10-22T04:29:17;15.30;99.90
21625;DHT22;10974;51.034;3.744;2022-10-22T04:31:43;15.30;99.90
21625;DHT22;10974;51.034;3.744;2022-10-22T04:34:08;15.30;99.90
21625;DHT22;10974;51.034;3.744;2022-10-22T04:36:34;15.20;99.90
21625;DHT22;10974;51.034;3.744;2022-10-22T04:39:01;15.20;99.90
21625;DHT22;10974;51.034;3.744;2022-10-22T04:41:30;15.10;99.90
21625;DHT22;10974;51.034;3.744;2022-10-22T04:43:56;15.10;99.90
21625;DHT22;10974;51.034;3.744;2022-10-22T04:46:24;15.10;99.90
21625;DHT22;10974;51.034;3.744;2022-10-22T04:48:50;15.10;99.90
21625;DHT22;10974;51.034;3.744;2022-10-22T04:51:18;15.10;99.90
21625;DHT22;10974;51.034;3.744;2022-10-22T04:53:44;15.10;99.90
21625;DHT22;10974;51.034;3.744;2022-10-22T04:56:36;15.00;99.90
21625;DHT22;10974;51.034;3.744;2022-10-22T04:59:04;14.90;99.90
21625;DHT22;10974;51.034;3.744;2022-10-22T05:01:32;15.00;99.90
21625;DHT22;10974;51.034;3.744;2022-10-22T05:03:59;15.00;99.90
21625;DHT22;10974;51.034;3.744;2022-10-22T05:06:26;15.00;99.90
21625;DHT22;10974;51.034;3.744;2022-10-22T05:08:54;15.00;99.90
21625;DHT22;10974;51.034;3.744;2022-10-22T05:11:23;14.90;99.90
21625;DHT22;10974;51.034;3.744;2022-10-22T05:13:50;14.90;99.90
21625;DHT22;10974;51.034;3.744;2022-10-22T05:16:16;15.00;99.90
21625;DHT22;10974;51.034;3.744;2022-10-22T05:18:43;15.00;99.90
21625;DHT22;10974;51.034;3.744;2022-10-22T05:21:14;15.00;99.90
21625;DHT22;10974;51.034;3.744;2022-10-22T05:23:41;15.00;99.90
21625;DHT22;10974;51.034;3.744;2022-10-22T05:26:09;14.90;99.90
21625;DHT22;10974;51.034;3.744;2022-10-22T05:28:36;14.90;99.90
21625;DHT22;10974;51.034;3.744;2022-10-22T05:31:02;14.90;99.90
21625;DHT22;10974;51.034;3.744;2022-10-22T05:33:30;15.00;99.90
21625;DHT22;10974;51.034;3.744;2022-10-22T05:35:56;14.90;99.90
21625;DHT22;10974;51.034;3.744;2022-10-22T05:38:22;15.00;99.90
21625;DHT22;10974;51.034;3.744;2022-10-22T05:41:01;15.10;99.90
21625;DHT22;10974;51.034;3.744;2022-10-22T05:43:29;15.10;99.90
21625;DHT22;10974;51.034;3.744;2022-10-22T05:45:55;15.10;99.90
21625;DHT22;10974;51.034;3.744;2022-10-22T05:48:21;15.20;99.90
21625;DHT22;10974;51.034;3.744;2022-10-22T05:50:47;15.10;99.90
21625;DHT22;10974;51.034;3.744;2022-10-22T05:53:16;15.10;99.90
21625;DHT22;10974;51.034;3.744;2022-10-22T05:55:43;15.10;99.90
21625;DHT22;10974;51.034;3.744;2022-10-22T05:58:10;15.10;99.90
21625;DHT22;10974;51.034;3.744;2022-10-22T06:00:36;15.50;99.90
21625;DHT22;10974;51.034;3.744;2022-10-22T06:03:02;16.20;99.90
21625;DHT22;10974;51.034;3.744;2022-10-22T06:05:27;16.90;99.90
21625;DHT22;10974;51.034;3.744;2022-10-22T06:07:53;17.50;99.90
21625;DHT22;10974;51.034;3.744;2022-10-22T06:10:20;17.30;99.90
21625;DHT22;10974;51.034;3.744;2022-10-22T06:12:47;17.30;99.90
21625;DHT22;10974;51.034;3.744;2022-10-22T06:15:14;17.50;99.90
21625;DHT22;10974;51.034;3.744;2022-10-22T06:17:40;17.60;99.90
21625;DHT22;10974;51.034;3.744;2022-10-22T06:20:07;18.10;99.90
21625;DHT22;10974;51.034;3.744;2022-10-22T06:22:33;18.40;99.90
21625;DHT22;10974;51.034;3.744;2022-10-22T06:24:58;18.70;99.90
21625;DHT22;10974;51.034;3.744;2022-10-22T06:27:24;18.80;99.90
21625;DHT22;10974;51.034;3.744;2022-10-22T06:29:50;18.50;99.90
21625;DHT22;10974;51.034;3.744;2022-10-22T06:32:16;18.30;99.90
21625;DHT22;10974;51.034;3.744;2022-10-22T06:34:42;18.60;99.90
21625;DHT22;10974;51.034;3.744;2022-10-22T06:37:09;18.60;99.90
21625;DHT22;10974;51.034;3.744;2022-10-22T06:39:34;18.90;99.90
21625;DHT22;10974;51.034;3.744;2022-10-22T06:42:00;18.70;99.90
21625;DHT22;10974;51.034;3.744;2022-10-22T06:44:26;18.30;99.90
21625;DHT22;10974;51.034;3.744;2022-10-22T06:46:52;18.30;99.90
21625;DHT22;10974;51.034;3.744;2022-10-22T06:49:19;18.50;99.90
21625;DHT22;10974;51.034;3.744;2022-10-22T06:51:48;18.70;99.90
21625;DHT22;10974;51.034;3.744;2022-10-22T06:54:14;18.70;99.90
21625;DHT22;10974;51.034;3.744;2022-10-22T06:56:40;18.60;99.90
21625;DHT22;10974;51.034;3.744;2022-10-22T06:59:06;18.50;99.90
21625;DHT22;10974;51.034;3.744;2022-10-22T07:01:33;18.60;99.90
21625;DHT22;10974;51.034;3.744;2022-10-22T07:04:00;18.80;99.90
21625;DHT22;10974;51.034;3.744;2022-10-22T07:06:27;18.50;99.90
21625;DHT22;10974;51.034;3.744;2022-10-22T07:08:54;18.60;99.90
21625;DHT22;10974;51.034;3.744;2022-10-22T07:11:25;18.60;99.90
21625;DHT22;10974;51.034;3.744;2022-10-22T07:13:54;18.20;99.90
21625;DHT22;10974;51.034;3.744;2022-10-22T07:16:20;17.80;99.90
21625;DHT22;10974;51.034;3.744;2022-10-22T07:18:46;18.00;99.90
21625;DHT22;10974;51.034;3.744;2022-10-22T07:21:13;18.10;99.90
21625;DHT22;10974;51.034;3.744;2022-10-22T07:23:39;17.90;99.90
21625;DHT22;10974;51.034;3.744;2022-10-22T07:26:06;17.90;99.90
21625;DHT22;10974;51.034;3.744;2022-10-22T07:28:36;18.00;99.90
21625;DHT22;10974;51.034;3.744;2022-10-22T07:31:04;18.20;99.90
21625;DHT22;10974;51.034;3.744;2022-10-22T07:33:30;18.10;99.90
21625;DHT22;10974;51.034;3.744;2022-10-22T07:35:58;18.40;99.90
21625;DHT22;10974;51.034;3.744;2022-10-22T07:38:27;18.40;99.90
21625;DHT22;10974;51.034;3.744;2022-10-22T07:40:54;18.40;99.90
21625;DHT22;10974;51.034;3.744;2022-10-22T07:43:19;18.30;99.90
21625;DHT22;10974;51.034;3.744;2022-10-22T07:45:45;18.30;99.90
21625;DHT22;10974;51.034;3.744;2022-10-22T07:48:12;18.30;99.90
21625;DHT22;10974;51.034;3.744;2022-10-22T07:50:38;18.40;99.90
21625;DHT22;10974;51.034;3.744;2022-10-22T07:53:03;18.30;99.90
21625;DHT22;10974;51.034;3.744;2022-10-22T07:55:29;18.40;99.90
21625;DHT22;10974;51.034;3.744;2022-10-22T07:57:55;18.30;99.90
21625;DHT22;10974;51.034;3.744;2022-10-22T08:00:21;18.20;99.90
21625;DHT22;10974;51.034;3.744;2022-10-22T08:02:46;17.80;99.90
21625;DHT22;10974;51.034;3.744;2022-10-22T08:05:12;18.10;99.90
21625;DHT22;10974;51.034;3.744;2022-10-22T08:07:39;18.20;99.90
21625;DHT22;10974;51.034;3.744;2022-10-22T08:10:05;17.80;99.90
21625;DHT22;10974;51.034;3.744;2022-10-22T08:12:31;18.20;99.90
21625;DHT22;10974;51.034;3.744;2022-10-22T08:14:57;18.10;99.90
21625;DHT22;10974;51.034;3.744;2022-10-22T08:17:22;18.10;99.90
21625;DHT22;10974;51.034;3.744;2022-10-22T08:19:48;18.00;99.90
21625;DHT22;10974;51.034;3.744;2022-10-22T08:22:14;17.90;99.90
21625;DHT22;10974;51.034;3.744;2022-10-22T08:24:39;17.80;99.90
21625;DHT22;10974;51.034;3.744;2022-10-22T08:27:05;17.90;99.90
21625;DHT22;10974;51.034;3.744;2022-10-22T08:29:31;18.00;99.90
21625;DHT22;10974;51.034;3.744;2022-10-22T08:31:57;18.30;99.90
21625;DHT22;10974;51.034;3.744;2022-10-22T08:34:22;18.50;99.90
21625;DHT22;10974;51.034;3.744;2022-10-22T08:36:48;18.50;99.90
21625;DHT22;10974;51.034;3.744;2022-10-22T08:39:13;18.60;99.90
21625;DHT22;10974;51.034;3.744;2022-10-22T08:49:52;18.90;99.90
21625;DHT22;10974;51.034;3.744;2022-10-22T08:52:19;18.90;99.90
21625;DHT22;10974;51.034;3.744;2022-10-22T08:54:57;19.10;99.90
21625;DHT22;10974;51.034;3.744;2022-10-22T08:57:38;19.00;99.90
21625;DHT22;10974;51.034;3.744;2022-10-22T09:06:04;19.30;99.90
21625;DHT22;10974;51.034;3.744;2022-10-22T09:08:34;19.50;99.90
21625;DHT22;10974;51.034;3.744;2022-10-22T09:11:12;19.40;99.90
21625;DHT22;10974;51.034;3.744;2022-10-22T09:13:43;19.70;99.90
21625;DHT22;10974;51.034;3.744;2022-10-22T09:25:01;19.80;99.90
21625;DHT22;10974;51.034;3.744;2022-10-22T09:27:34;19.70;99.90
21625;DHT22;10974;51.034;3.744;2022-10-22T09:30:00;19.80;99.90
21625;DHT22;10974;51.034;3.744;2022-10-22T09:32:26;19.90;99.90
21625;DHT22;10974;51.034;3.744;2022-10-22T09:34:55;19.90;99.90
21625;DHT22;10974;51.034;3.744;2022-10-22T09:37:26;20.00;99.90
21625;DHT22;10974;51.034;3.744;2022-10-22T09:39:53;19.90;99.90
21625;DHT22;10974;51.034;3.744;2022-10-22T09:42:20;19.90;99.90
21625;DHT22;10974;51.034;3.744;2022-10-22T09:44:52;19.90;99.90
21625;DHT22;10974;51.034;3.744;2022-10-22T09:50:19;20.00;99.90
21625;DHT22;10974;51.034;3.744;2022-10-22T09:55:24;20.00;99.90
21625;DHT22;10974;51.034;3.744;2022-10-22T09:57:58;20.00;99.90
21625;DHT22;10974;51.034;3.744;2022-10-22T10:00:25;19.50;99.90
21625;DHT22;10974;51.034;3.744;2022-10-22T10:02:55;19.40;99.90
21625;DHT22;10974;51.034;3.744;2022-10-22T10:05:28;19.40;99.90
21625;DHT22;10974;51.034;3.744;2022-10-22T10:07:54;19.40;99.90
21625;DHT22;10974;51.034;3.744;2022-10-22T10:11:04;19.30;99.90
21625;DHT22;10974;51.034;3.744;2022-10-22T10:16:19;19.10;99.90
21625;DHT22;10974;51.034;3.744;2022-10-22T10:27:29;18.60;99.90
21625;DHT22;10974;51.034;3.744;2022-10-22T10:44:03;18.70;99.90
21625;DHT22;10974;51.034;3.744;2022-10-22T10:49:23;18.30;99.90
21625;DHT22;10974;51.034;3.744;2022-10-22T10:55:08;18.50;99.90
21625;DHT22;10974;51.034;3.744;2022-10-22T11:00:17;19.00;99.90
21625;DHT22;10974;51.034;3.744;2022-10-22T11:05:53;19.30;99.90
21625;DHT22;10974;51.034;3.744;2022-10-22T11:08:31;19.30;99.90
21625;DHT22;10974;51.034;3.744;2022-10-22T11:11:18;19.30;99.90
21625;DHT22;10974;51.034;3.744;2022-10-22T11:14:02;19.50;99.90
21625;DHT22;10974;51.034;3.744;2022-10-22T11:16:38;19.60;99.90
21625;DHT22;10974;51.034;3.744;2022-10-22T11:22:08;19.70;99.90
21625;DHT22;10974;51.034;3.744;2022-10-22T11:29:49;19.70;99.90
21625;DHT22;10974;51.034;3.744;2022-10-22T11:32:18;19.40;99.90
21625;DHT22;10974;51.034;3.744;2022-10-22T11:34:55;19.10;99.90
21625;DHT22;10974;51.034;3.744;2022-10-22T11:37:23;18.90;99.90
21625;DHT22;10974;51.034;3.744;2022-10-22T11:39:57;19.20;99.90
21625;DHT22;10974;51.034;3.744;2022-10-22T11:42:33;19.40;99.90
21625;DHT22;10974;51.034;3.744;2022-10-22T11:45:26;19.80;99.90
21625;DHT22;10974;51.034;3.744;2022-10-22T11:50:56;20.80;99.90
21625;DHT22;10974;51.034;3.744;2022-10-22T11:55:52;21.00;1.00
21625;DHT22;10974;51.034;3.744;2022-10-22T12:00:57;20.50;99.90
21625;DHT22;10974;51.034;3.744;2022-10-22T12:11:21;21.20;99.90
21625;DHT22;10974;51.034;3.744;2022-10-22T12:16:50;21.80;99.90
21625;DHT22;10974;51.034;3.744;2022-10-22T12:21:56;22.20;99.90
21625;DHT22;10974;51.034;3.744;2022-10-22T12:24:23;22.20;1.00
21625;DHT22;10974;51.034;3.744;2022-10-22T12:26:50;22.40;1.00
21625;DHT22;10974;51.034;3.744;2022-10-22T12:29:19;22.50;99.90
21625;DHT22;10974;51.034;3.744;2022-10-22T12:31:46;22.10;3.00
21625;DHT22;10974;51.034;3.744;2022-10-22T12:34:21;22.00;1.00
21625;DHT22;10974;51.034;3.744;2022-10-22T12:36:49;22.00;1.00
21625;DHT22;10974;51.034;3.744;2022-10-22T12:39:21;21.80;99.90
21625;DHT22;10974;51.034;3.744;2022-10-22T12:41:47;21.80;1.00
21625;DHT22;10974;51.034;3.744;2022-10-22T12:44:17;22.00;1.00
21625;DHT22;10974;51.034;3.744;2022-10-22T12:46:44;21.60;99.90
21625;DHT22;10974;51.034;3.744;2022-10-22T12:49:16;21.00;1.00
21625;DHT22;10974;51.034;3.744;2022-10-22T12:51:43;20.60;1.00
21625;DHT22;10974;51.034;3.744;2022-10-22T12:54:21;20.30;6.70
21625;DHT22;10974;51.034;3.744;2022-10-22T12:56:47;20.20;99.90
21625;DHT22;10974;51.034;3.744;2022-10-22T12:59:16;20.00;99.90
21625;DHT22;10974;51.034;3.744;2022-10-22T13:01:43;20.00;99.90
21625;DHT22;10974;51.034;3.744;2022-10-22T13:06:43;20.40;99.90
21625;DHT22;10974;51.034;3.744;2022-10-22T13:09:19;20.60;99.90
21625;DHT22;10974;51.034;3.744;2022-10-22T13:12:01;20.40;99.90
21625;DHT22;10974;51.034;3.744;2022-10-22T13:14:31;20.20;99.90
21625;DHT22;10974;51.034;3.744;2022-10-22T13:24:52;19.80;99.90
21625;DHT22;10974;51.034;3.744;2022-10-22T13:27:19;20.00;1.00
21625;DHT22;10974;51.034;3.744;2022-10-22T13:29:44;19.80;1.00
21625;DHT22;10974;51.034;3.744;2022-10-22T13:32:28;20.00;43.40
21625;DHT22;10974;51.034;3.744;2022-10-22T13:35:03;20.10;99.90
21625;DHT22;10974;51.034;3.744;2022-10-22T13:37:31;20.20;99.90
21625;DHT22;10974;51.034;3.744;2022-10-22T13:39:58;20.30;1.00
21625;DHT22;10974;51.034;3.744;2022-10-22T13:42:24;20.20;1.00
21625;DHT22;10974;51.034;3.744;2022-10-22T13:44:50;20.30;99.90
21625;DHT22;10974;51.034;3.744;2022-10-22T13:47:26;20.40;99.90
21625;DHT22;10974;51.034;3.744;2022-10-22T13:50:00;20.20;99.90
21625;DHT22;10974;51.034;3.744;2022-10-22T13:52:30;20.50;1.00
21625;DHT22;10974;51.034;3.744;2022-10-22T13:54:57;20.40;1.00
21625;DHT22;10974;51.034;3.744;2022-10-22T13:57:23;20.30;1.00
21625;DHT22;10974;51.034;3.744;2022-10-22T13:59:49;20.00;1.00
21625;DHT22;10974;51.034;3.744;2022-10-22T14:02:15;19.90;99.90
21625;DHT22;10974;51.034;3.744;2022-10-22T14:04:42;19.70;99.90
21625;DHT22;10974;51.034;3.744;2022-10-22T14:07:14;19.70;99.90
21625;DHT22;10974;51.034;3.744;2022-10-22T14:09:42;19.70;1.00
21625;DHT22;10974;51.034;3.744;2022-10-22T14:12:15;19.60;99.90
21625;DHT22;10974;51.034;3.744;2022-10-22T14:14:41;19.60;1.00
21625;DHT22;10974;51.034;3.744;2022-10-22T14:17:12;19.60;92.20
21625;DHT22;10974;51.034;3.744;2022-10-22T14:19:45;19.70;1.00
21625;DHT22;10974;51.034;3.744;2022-10-22T14:22:19;19.70;31.00
21625;DHT22;10974;51.034;3.744;2022-10-22T14:24:45;19.60;99.90
21625;DHT22;10974;51.034;3.744;2022-10-22T14:27:13;19.50;1.00
21625;DHT22;10974;51.034;3.744;2022-10-22T14:29:39;19.60;99.90
21625;DHT22;10974;51.034;3.744;2022-10-22T14:32:11;19.60;1.00
21625;DHT22;10974;51.034;3.744;2022-10-22T14:34:38;19.50;99.90
21625;DHT22;10974;51.034;3.744;2022-10-22T14:37:03;19.50;1.00
21625;DHT22;10974;51.034;3.744;2022-10-22T14:39:29;19.50;1.00
21625;DHT22;10974;51.034;3.744;2022-10-22T14:41:55;19.60;1.00
21625;DHT22;10974;51.034;3.744;2022-10-22T14:44:20;19.70;1.00
21625;DHT22;10974;51.034;3.744;2022-10-22T14:46:46;19.60;1.00
21625;DHT22;10974;51.034;3.744;2022-10-22T14:49:12;19.70;99.90
21625;DHT22;10974;51.034;3.744;2022-10-22T14:51:37;19.60;1.00
21625;DHT22;10974;51.034;3.744;2022-10-22T14:54:03;19.50;1.00
21625;DHT22;10974;51.034;3.744;2022-10-22T14:56:29;19.50;1.00
21625;DHT22;10974;51.034;3.744;2022-10-22T14:58:54;19.40;99.90
21625;DHT22;10974;51.034;3.744;2022-10-22T15:01:20;19.10;99.90
21625;DHT22;10974;51.034;3.744;2022-10-22T15:03:45;19.30;1.00
21625;DHT22;10974;51.034;3.744;2022-10-22T15:06:11;19.20;1.00
21625;DHT22;10974;51.034;3.744;2022-10-22T15:08:37;19.30;91.80
21625;DHT22;10974;51.034;3.744;2022-10-22T15:11:09;19.30;1.00
21625;DHT22;10974;51.034;3.744;2022-10-22T15:13:35;19.10;1.00
21625;DHT22;10974;51.034;3.744;2022-10-22T15:16:04;19.10;1.00
21625;DHT22;10974;51.034;3.744;2022-10-22T15:18:29;19.00;1.00
21625;DHT22;10974;51.034;3.744;2022-10-22T15:21:06;19.10;99.90
21625;DHT22;10974;51.034;3.744;2022-10-22T15:23:32;19.00;1.00
21625;DHT22;10974;51.034;3.744;2022-10-22T15:25:58;18.90;1.00
21625;DHT22;10974;51.034;3.744;2022-10-22T15:28:24;19.00;97.50
21625;DHT22;10974;51.034;3.744;2022-10-22T15:30:57;19.00;1.00
21625;DHT22;10974;51.034;3.744;2022-10-22T15:33:24;19.00;1.00
21625;DHT22;10974;51.034;3.744;2022-10-22T15:35:50;18.90;1.00
21625;DHT22;10974;51.034;3.744;2022-10-22T15:38:16;18.90;1.00
21625;DHT22;10974;51.034;3.744;2022-10-22T15:40:42;18.90;1.00
21625;DHT22;10974;51.034;3.744;2022-10-22T15:43:08;18.80;99.90
21625;DHT22;10974;51.034;3.744;2022-10-22T15:45:34;18.70;99.90
21625;DHT22;10974;51.034;3.744;2022-10-22T15:47:59;18.60;99.90
21625;DHT22;10974;51.034;3.744;2022-10-22T15:50:25;18.70;99.90
21625;DHT22;10974;51.034;3.744;2022-10-22T15:52:51;18.60;99.90
21625;DHT22;10974;51.034;3.744;2022-10-22T15:55:17;18.60;99.90
21625;DHT22;10974;51.034;3.744;2022-10-22T15:57:43;18.60;99.90
21625;DHT22;10974;51.034;3.744;2022-10-22T16:00:09;18.70;99.90
21625;DHT22;10974;51.034;3.744;2022-10-22T16:02:35;19.00;99.90
21625;DHT22;10974;51.034;3.744;2022-10-22T16:05:01;19.10;99.90
21625;DHT22;10974;51.034;3.744;2022-10-22T16:07:28;19.30;1.00
21625;DHT22;10974;51.034;3.744;2022-10-22T16:09:57;19.40;1.00
21625;DHT22;10974;51.034;3.744;2022-10-22T16:12:24;19.40;99.90
21625;DHT22;10974;51.034;3.744;2022-10-22T16:14:51;19.40;1.00
21625;DHT22;10974;51.034;3.744;2022-10-22T16:17:17;19.40;1.00
21625;DHT22;10974;51.034;3.744;2022-10-22T16:19:43;19.50;1.00
21625;DHT22;10974;51.034;3.744;2022-10-22T16:22:09;19.40;1.00
21625;DHT22;10974;51.034;3.744;2022-10-22T16:24:36;19.40;1.00
21625;DHT22;10974;51.034;3.744;2022-10-22T16:27:06;19.40;1.00
21625;DHT22;10974;51.034;3.744;2022-10-22T16:29:32;19.40;1.00
21625;DHT22;10974;51.034;3.744;2022-10-22T16:31:58;19.40;1.00
21625;DHT22;10974;51.034;3.744;2022-10-22T16:34:27;19.30;18.50
21625;DHT22;10974;51.034;3.744;2022-10-22T16:36:52;19.30;99.90
21625;DHT22;10974;51.034;3.744;2022-10-22T16:39:20;19.50;1.00
21625;DHT22;10974;51.034;3.744;2022-10-22T16:41:46;19.90;1.00
21625;DHT22;10974;51.034;3.744;2022-10-22T16:44:11;20.20;91.30
21625;DHT22;10974;51.034;3.744;2022-10-22T16:46:37;20.30;74.30
21625;DHT22;10974;51.034;3.744;2022-10-22T16:49:04;20.40;1.00
21625;DHT22;10974;51.034;3.744;2022-10-22T16:51:30;20.60;1.00
21625;DHT22;10974;51.034;3.744;2022-10-22T16:53:56;20.60;99.90
21625;DHT22;10974;51.034;3.744;2022-10-22T16:56:22;20.60;1.00
21625;DHT22;10974;51.034;3.744;2022-10-22T16:58:50;20.60;99.90
21625;DHT22;10974;51.034;3.744;2022-10-22T17:01:18;20.70;99.90
21625;DHT22;10974;51.034;3.744;2022-10-22T17:03:44;20.70;52.80
21625;DHT22;10974;51.034;3.744;2022-10-22T17:06:10;20.80;90.80
21625;DHT22;10974;51.034;3.744;2022-10-22T17:08:37;20.70;67.50
21625;DHT22;10974;51.034;3.744;2022-10-22T17:11:14;20.70;26.40
21625;DHT22;10974;51.034;3.744;2022-10-22T17:13:43;20.70;99.90
21625;DHT22;10974;51.034;3.744;2022-10-22T17:16:11;20.70;99.90
21625;DHT22;10974;51.034;3.744;2022-10-22T17:18:38;20.80;99.90
21625;DHT22;10974;51.034;3.744;2022-10-22T17:21:05;20.70;99.90
21625;DHT22;10974;51.034;3.744;2022-10-22T17:23:31;20.70;1.00
21625;DHT22;10974;51.034;3.744;2022-10-22T17:26:02;20.70;1.00
21625;DHT22;10974;51.034;3.744;2022-10-22T17:28:28;20.80;1.00
21625;DHT22;10974;51.034;3.744;2022-10-22T17:31:10;20.70;1.00
21625;DHT22;10974;51.034;3.744;2022-10-22T17:33:39;20.70;1.00
21625;DHT22;10974;51.034;3.744;2022-10-22T17:36:06;20.70;1.00
21625;DHT22;10974;51.034;3.744;2022-10-22T17:38:35;20.70;1.00
21625;DHT22;10974;51.034;3.744;2022-10-22T17:41:02;20.70;1.00
21625;DHT22;10974;51.034;3.744;2022-10-22T17:43:27;20.70;99.90
21625;DHT22;10974;51.034;3.744;2022-10-22T17:46:08;20.70;99.90
21625;DHT22;10974;51.034;3.744;2022-10-22T17:48:37;20.70;99.90
21625;DHT22;10974;51.034;3.744;2022-10-22T17:51:10;20.70;99.90
21625;DHT22;10974;51.034;3.744;2022-10-22T17:53:39;20.70;99.90
21625;DHT22;10974;51.034;3.744;2022-10-22T17:56:09;20.70;1.00
21625;DHT22;10974;51.034;3.744;2022-10-22T17:58:35;20.70;1.00
21625;DHT22;10974;51.034;3.744;2022-10-22T18:01:01;20.70;1.00
21625;DHT22;10974;51.034;3.744;2022-10-22T18:03:27;20.70;1.00
21625;DHT22;10974;51.034;3.744;2022-10-22T18:05:53;20.70;1.00
21625;DHT22;10974;51.034;3.744;2022-10-22T18:08:19;20.60;99.90
21625;DHT22;10974;51.034;3.744;2022-10-22T18:10:45;20.60;99.90
21625;DHT22;10974;51.034;3.744;2022-10-22T18:13:11;20.60;99.90
21625;DHT22;10974;51.034;3.744;2022-10-22T18:15:36;20.60;99.90
21625;DHT22;10974;51.034;3.744;2022-10-22T18:18:03;20.60;99.90
21625;DHT22;10974;51.034;3.744;2022-10-22T18:20:29;20.60;99.90
21625;DHT22;10974;51.034;3.744;2022-10-22T18:22:55;20.60;99.90
21625;DHT22;10974;51.034;3.744;2022-10-22T18:25:20;20.60;99.90
21625;DHT22;10974;51.034;3.744;2022-10-22T18:27:46;20.50;99.90
21625;DHT22;10974;51.034;3.744;2022-10-22T18:30:12;20.50;99.90
21625;DHT22;10974;51.034;3.744;2022-10-22T18:32:38;20.50;99.90
21625;DHT22;10974;51.034;3.744;2022-10-22T18:35:04;20.50;1.00
21625;DHT22;10974;51.034;3.744;2022-10-22T18:37:30;20.40;1.00
21625;DHT22;10974;51.034;3.744;2022-10-22T18:39:56;20.40;1.00
21625;DHT22;10974;51.034;3.744;2022-10-22T18:42:22;20.40;1.00
21625;DHT22;10974;51.034;3.744;2022-10-22T18:44:49;20.50;1.00
21625;DHT22;10974;51.034;3.744;2022-10-22T18:47:15;20.40;4.80
21625;DHT22;10974;51.034;3.744;2022-10-22T18:49:41;20.40;1.00
21625;DHT22;10974;51.034;3.744;2022-10-22T18:52:06;20.40;1.00
21625;DHT22;10974;51.034;3.744;2022-10-22T18:54:32;20.30;4.60
21625;DHT22;10974;51.034;3.744;2022-10-22T18:56:57;20.30;1.00
21625;DHT22;10974;51.034;3.744;2022-10-22T18:59:25;20.30;99.90
21625;DHT22;10974;51.034;3.744;2022-10-22T19:01:52;20.30;99.90
21625;DHT22;10974;51.034;3.744;2022-10-22T19:04:18;20.30;99.90
21625;DHT22;10974;51.034;3.744;2022-10-22T19:06:44;20.30;99.90
21625;DHT22;10974;51.034;3.744;2022-10-22T19:09:11;20.30;99.90
21625;DHT22;10974;51.034;3.744;2022-10-22T19:11:36;20.30;99.90
21625;DHT22;10974;51.034;3.744;2022-10-22T19:14:02;20.30;99.90
21625;DHT22;10974;51.034;3.744;2022-10-22T19:16:28;20.20;99.90
21625;DHT22;10974;51.034;3.744;2022-10-22T19:19:02;20.20;99.90
21625;DHT22;10974;51.034;3.744;2022-10-22T19:21:28;20.20;1.00
21625;DHT22;10974;51.034;3.744;2022-10-22T19:23:58;20.20;1.00
21625;DHT22;10974;51.034;3.744;2022-10-22T19:26:24;20.10;1.00
21625;DHT22;10974;51.034;3.744;2022-10-22T19:28:55;20.10;1.00
21625;DHT22;10974;51.034;3.744;2022-10-22T19:31:22;20.20;46.10
21625;DHT22;10974;51.034;3.744;2022-10-22T19:33:49;20.20;1.00
21625;DHT22;10974;51.034;3.744;2022-10-22T19:36:16;20.20;1.00
21625;DHT22;10974;51.034;3.744;2022-10-22T19:38:44;20.20;1.00
21625;DHT22;10974;51.034;3.744;2022-10-22T19:41:12;20.30;1.00
21625;DHT22;10974;51.034;3.744;2022-10-22T19:43:39;20.20;1.00
21625;DHT22;10974;51.034;3.744;2022-10-22T19:46:05;20.20;1.00
21625;DHT22;10974;51.034;3.744;2022-10-22T19:48:31;20.20;1.00
21625;DHT22;10974;51.034;3.744;2022-10-22T19:50:58;20.20;1.00
21625;DHT22;10974;51.034;3.744;2022-10-22T19:53:24;20.20;1.00
21625;DHT22;10974;51.034;3.744;2022-10-22T19:55:50;20.20;1.00
21625;DHT22;10974;51.034;3.744;2022-10-22T19:58:16;20.10;1.00
21625;DHT22;10974;51.034;3.744;2022-10-22T20:00:41;20.10;1.00
21625;DHT22;10974;51.034;3.744;2022-10-22T20:03:07;20.00;1.00
21625;DHT22;10974;51.034;3.744;2022-10-22T20:05:33;20.00;1.00
21625;DHT22;10974;51.034;3.744;2022-10-22T20:08:02;20.10;99.90
21625;DHT22;10974;51.034;3.744;2022-10-22T20:10:27;20.20;1.00
21625;DHT22;10974;51.034;3.744;2022-10-22T20:12:54;20.10;99.90
21625;DHT22;10974;51.034;3.744;2022-10-22T20:15:20;20.10;99.90
21625;DHT22;10974;51.034;3.744;2022-10-22T20:17:46;20.10;99.90
21625;DHT22;10974;51.034;3.744;2022-10-22T20:20:12;20.10;13.30
21625;DHT22;10974;51.034;3.744;2022-10-22T20:22:37;20.00;22.50
21625;DHT22;10974;51.034;3.744;2022-10-22T20:25:04;20.10;99.90
21625;DHT22;10974;51.034;3.744;2022-10-22T20:27:30;20.10;99.90
21625;DHT22;10974;51.034;3.744;2022-10-22T20:29:55;20.10;99.90
21625;DHT22;10974;51.034;3.744;2022-10-22T20:32:21;20.10;99.90
21625;DHT22;10974;51.034;3.744;2022-10-22T20:34:48;20.10;1.00
21625;DHT22;10974;51.034;3.744;2022-10-22T20:37:14;20.00;1.00
21625;DHT22;10974;51.034;3.744;2022-10-22T20:39:39;20.00;35.90
21625;DHT22;10974;51.034;3.744;2022-10-22T20:42:05;20.10;99.90
21625;DHT22;10974;51.034;3.744;2022-10-22T20:44:31;20.10;99.90
21625;DHT22;10974;51.034;3.744;2022-10-22T20:46:56;20.10;99.90
21625;DHT22;10974;51.034;3.744;2022-10-22T20:49:22;20.20;99.90
21625;DHT22;10974;51.034;3.744;2022-10-22T20:51:47;20.20;99.90
21625;DHT22;10974;51.034;3.744;2022-10-22T20:54:14;20.10;99.90
21625;DHT22;10974;51.034;3.744;2022-10-22T20:56:40;20.10;99.90
21625;DHT22;10974;51.034;3.744;2022-10-22T20:59:07;20.00;99.90
21625;DHT22;10974;51.034;3.744;2022-10-22T21:01:46;20.00;1.00
21625;DHT22;10974;51.034;3.744;2022-10-22T21:04:13;20.00;1.00
21625;DHT22;10974;51.034;3.744;2022-10-22T21:06:39;20.00;1.00
21625;DHT22;10974;51.034;3.744;2022-10-22T21:09:08;20.00;1.00
21625;DHT22;10974;51.034;3.744;2022-10-22T21:11:36;20.10;1.00
21625;DHT22;10974;51.034;3.744;2022-10-22T21:14:03;20.10;1.00
21625;DHT22;10974;51.034;3.744;2022-10-22T21:16:30;20.10;1.00
21625;DHT22;10974;51.034;3.744;2022-10-22T21:18:56;20.10;1.00
21625;DHT22;10974;51.034;3.744;2022-10-22T21:21:21;20.00;1.00
